Terminal Aerodrome Forecast
Issued by NWS

Home | Current Version | Previous Version | Text Only | Print | Product List | Glossary On
Versions: 1 2 3 4 5 6 7 8 9 10 11 12 13 14 15
000
FTUS43 KSGF 270904 AAB
TAFJLN
TAF AMD
KJLN 270904Z 2709/2806 00000KT 3SM BR SCT008 SCT200
      TEMPO 2709/2712 1SM BR
     FM271400 13005KT P6SM SCT040 SCT200
     FM271800 17005KT P6SM VCTS SCT040CB BKN080
     FM280100 16004KT P6SM SCT200=

USA.gov is the U.S. government's official web portal to all federal, state and local government web resources and services.